createdAt,value
2023-04-18T00:00:18.543Z,2.83
2023-04-18T00:02:47.504Z,2.10
2023-04-18T00:05:18.272Z,2.13
2023-04-18T00:07:45.731Z,2.58
2023-04-18T00:10:13.701Z,2.70
2023-04-18T00:12:43.132Z,2.72
2023-04-18T00:15:12.463Z,2.58
2023-04-18T00:17:40.400Z,3.13
2023-04-18T00:20:13.582Z,2.33
2023-04-18T00:22:42.981Z,1.95
2023-04-18T00:25:11.374Z,2.25
2023-04-18T00:27:39.474Z,2.88
2023-04-18T00:30:08.288Z,2.10
2023-04-18T00:32:38.804Z,2.67
2023-04-18T00:35:06.881Z,2.95
2023-04-18T00:37:35.921Z,2.50
2023-04-18T00:40:05.676Z,2.53
2023-04-18T00:42:33.598Z,3.25
2023-04-18T00:45:01.234Z,2.90
2023-04-18T00:47:28.741Z,2.63
2023-04-18T00:49:57.221Z,2.63
2023-04-18T00:52:27.335Z,3.97
2023-04-18T00:54:56.284Z,3.00
2023-04-18T00:57:24.594Z,3.22
2023-04-18T00:59:52.257Z,2.30
2023-04-18T01:02:20.351Z,2.47
2023-04-18T01:04:47.702Z,2.75
2023-04-18T01:07:15.333Z,2.85
2023-04-18T01:09:42.885Z,3.03
2023-04-18T01:12:11.625Z,3.50
2023-04-18T01:14:41.759Z,3.78
2023-04-18T01:17:10.756Z,2.72
2023-04-18T01:19:38.238Z,3.10
2023-04-18T01:22:08.743Z,3.10
2023-04-18T01:24:37.719Z,3.67
2023-04-18T01:27:06.002Z,2.67
2023-04-18T01:29:34.489Z,3.20
2023-04-18T01:32:02.754Z,3.03
2023-04-18T01:34:30.310Z,2.92
2023-04-18T01:36:57.901Z,2.70
2023-04-18T01:39:25.326Z,2.90
2023-04-18T01:41:54.813Z,2.53
2023-04-18T01:44:22.041Z,2.25
2023-04-18T01:46:49.437Z,3.47
2023-04-18T01:49:16.900Z,2.20
2023-04-18T01:51:44.410Z,2.17
2023-04-18T01:54:12.207Z,2.35
2023-04-18T01:56:39.735Z,2.40
2023-04-18T01:59:08.658Z,2.72
2023-04-18T02:01:36.173Z,2.55
2023-04-18T02:04:03.835Z,2.78
2023-04-18T02:06:31.451Z,3.13
2023-04-18T02:09:00.605Z,2.53
2023-04-18T02:11:27.891Z,2.75
2023-04-18T02:13:55.797Z,2.80
2023-04-18T02:16:24.808Z,3.03
2023-04-18T02:18:52.642Z,2.70
2023-04-18T02:21:20.059Z,3.40
2023-04-18T02:23:49.506Z,2.75
2023-04-18T02:26:16.855Z,3.78
2023-04-18T02:28:44.118Z,3.38
2023-04-18T02:31:14.894Z,4.03
2023-04-18T02:33:45.827Z,4.10
2023-04-18T02:36:14.051Z,3.63
2023-04-18T02:38:43.624Z,3.28
2023-04-18T02:41:15.349Z,3.47
2023-04-18T02:43:43.215Z,4.25
2023-04-18T02:46:11.200Z,3.47
2023-04-18T02:48:38.686Z,3.72
2023-04-18T02:51:09.226Z,3.28
2023-04-18T02:53:38.486Z,4.15
2023-04-18T02:56:07.007Z,3.17
2023-04-18T02:58:54.427Z,2.95
2023-04-18T03:01:47.919Z,3.35
2023-04-18T03:04:18.725Z,3.38
2023-04-18T03:06:58.073Z,3.58
2023-04-18T03:09:27.176Z,3.67
2023-04-18T03:11:59.624Z,3.28
2023-04-18T03:14:30.012Z,4.40
2023-04-18T03:16:57.380Z,3.28
2023-04-18T03:22:01.172Z,3.38
2023-04-18T03:24:28.542Z,4.03
2023-04-18T03:27:00.685Z,3.72
2023-04-18T03:29:28.825Z,4.13
2023-04-18T03:31:56.465Z,3.03
2023-04-18T03:34:24.178Z,3.78
2023-04-18T03:36:52.795Z,3.45
2023-04-18T03:39:21.523Z,3.20
2023-04-18T03:41:49.922Z,3.33
2023-04-18T03:44:18.035Z,3.22
2023-04-18T03:46:46.385Z,4.60
2023-04-18T03:49:13.883Z,4.32
2023-04-18T03:51:47.977Z,3.40
2023-04-18T03:54:15.984Z,3.65
2023-04-18T03:56:45.506Z,4.47
2023-04-18T03:59:14.168Z,3.00
2023-04-18T04:01:44.613Z,4.00
2023-04-18T04:04:14.204Z,4.05
2023-04-18T04:06:44.297Z,4.05
2023-04-18T04:09:22.592Z,4.53
2023-04-18T04:14:19.733Z,3.67
2023-04-18T04:16:47.195Z,3.80
2023-04-18T04:19:17.210Z,4.15
2023-04-18T04:21:53.546Z,4.50
2023-04-18T04:24:22.815Z,4.00
2023-04-18T04:26:53.373Z,5.88
2023-04-18T04:29:24.709Z,3.92
2023-04-18T04:31:53.659Z,4.72
2023-04-18T04:34:34.520Z,4.90
2023-04-18T04:37:05.026Z,4.85
2023-04-18T04:39:37.820Z,4.85
2023-04-18T04:42:28.709Z,5.30
2023-04-18T04:45:12.621Z,5.55
2023-04-18T04:47:40.195Z,4.63
2023-04-18T04:50:14.777Z,6.55
2023-04-18T04:52:42.680Z,4.70
2023-04-18T04:55:10.960Z,5.68
2023-04-18T04:57:39.668Z,5.55
2023-04-18T05:00:24.478Z,5.25
2023-04-18T05:02:56.497Z,5.35
2023-04-18T05:05:25.753Z,5.68
2023-04-18T05:07:53.285Z,5.85
2023-04-18T05:10:21.804Z,5.85
2023-04-18T05:12:50.592Z,4.78
2023-04-18T05:15:18.675Z,4.95
2023-04-18T05:17:46.416Z,6.40
2023-04-18T05:20:13.951Z,5.75
2023-04-18T05:22:41.432Z,6.07
2023-04-18T05:25:09.430Z,6.45
2023-04-18T05:27:36.774Z,5.97
2023-04-18T05:30:06.983Z,6.35
2023-04-18T05:32:34.623Z,7.03
2023-04-18T05:35:02.151Z,5.65
2023-04-18T05:37:30.674Z,6.03
2023-04-18T05:39:59.918Z,6.40
2023-04-18T05:42:28.293Z,5.63
2023-04-18T05:44:55.794Z,6.38
2023-04-18T05:47:27.056Z,5.43
2023-04-18T05:49:55.152Z,5.40
2023-04-18T05:52:23.002Z,6.25
2023-04-18T05:54:51.013Z,6.53
2023-04-18T05:57:18.502Z,5.28
2023-04-18T05:59:45.941Z,6.13
2023-04-18T06:02:13.759Z,7.15
2023-04-18T06:04:43.562Z,6.25
2023-04-18T06:07:11.837Z,5.30
2023-04-18T06:09:39.138Z,5.78
2023-04-18T06:12:06.600Z,7.25
2023-04-18T06:14:34.166Z,6.15
2023-04-18T06:17:01.391Z,5.93
2023-04-18T06:19:28.970Z,6.53
2023-04-18T06:21:57.681Z,5.65
2023-04-18T06:24:25.067Z,6.95
2023-04-18T06:26:52.558Z,5.00
2023-04-18T06:29:19.942Z,6.18
2023-04-18T06:31:48.464Z,6.40
2023-04-18T06:34:16.632Z,4.65
2023-04-18T06:36:44.195Z,6.93
2023-04-18T06:39:13.221Z,6.50
2023-04-18T06:41:40.601Z,6.13
2023-04-18T06:44:08.108Z,6.43
2023-04-18T06:46:35.912Z,7.20
2023-04-18T06:49:03.966Z,5.88
2023-04-18T06:51:31.797Z,5.88
2023-04-18T06:53:59.100Z,5.80
2023-04-18T06:56:27.979Z,6.30
2023-04-18T06:58:55.557Z,4.38
2023-04-18T07:01:22.926Z,7.82
2023-04-18T07:03:50.395Z,4.97
2023-04-18T07:06:18.857Z,5.93
2023-04-18T07:08:46.470Z,4.60
2023-04-18T07:11:13.822Z,4.80
2023-04-18T07:13:43.263Z,5.07
2023-04-18T07:16:10.715Z,4.30
2023-04-18T07:18:38.728Z,5.68
2023-04-18T07:21:09.271Z,4.57
2023-04-18T07:23:37.152Z,4.57
2023-04-18T07:26:05.930Z,3.83
2023-04-18T07:28:33.609Z,4.00
2023-04-18T07:31:03.872Z,3.60
2023-04-18T07:33:33.899Z,4.20
2023-04-18T07:36:02.029Z,4.65
2023-04-18T07:38:29.515Z,4.65
2023-04-18T07:40:57.792Z,4.45
2023-04-18T07:43:25.175Z,6.00
2023-04-18T07:45:53.204Z,4.82
2023-04-18T07:48:22.829Z,5.25
2023-04-18T07:50:50.354Z,5.30
2023-04-18T07:53:17.985Z,5.15
2023-04-18T07:55:45.798Z,5.45
2023-04-18T07:58:13.712Z,4.53
2023-04-18T08:00:42.839Z,4.75
2023-04-18T08:03:12.380Z,5.78
2023-04-18T08:05:43.108Z,4.55
2023-04-18T08:08:12.127Z,4.65
2023-04-18T08:10:39.697Z,3.72
2023-04-18T08:13:08.202Z,4.75
2023-04-18T08:15:35.956Z,5.43
2023-04-18T08:18:03.415Z,5.28
2023-04-18T08:20:31.113Z,5.63
2023-04-18T08:23:05.618Z,4.45
2023-04-18T08:25:36.630Z,4.18
2023-04-18T08:28:04.573Z,4.15
2023-04-18T08:30:32.015Z,4.47
2023-04-18T08:32:59.781Z,4.57
2023-04-18T08:35:27.418Z,3.85
2023-04-18T08:37:54.990Z,4.85
2023-04-18T08:40:24.255Z,5.05
2023-04-18T08:42:53.634Z,4.43
2023-04-18T08:45:21.371Z,4.47
2023-04-18T08:47:48.864Z,4.05
2023-04-18T08:50:17.462Z,4.10
2023-04-18T08:52:48.242Z,4.82
2023-04-18T08:55:16.502Z,5.15
2023-04-18T08:57:45.490Z,5.72
2023-04-18T09:00:14.094Z,4.60
2023-04-18T09:02:47.293Z,4.20
2023-04-18T09:05:16.640Z,4.53
2023-04-18T09:07:44.277Z,5.78
2023-04-18T09:10:12.793Z,5.03
2023-04-18T09:12:52.474Z,4.78
2023-04-18T09:15:23.460Z,5.25
2023-04-18T09:17:56.489Z,4.82
2023-04-18T09:20:30.869Z,5.35
2023-04-18T09:23:00.896Z,5.45
2023-04-18T09:25:29.973Z,5.35
2023-04-18T09:28:01.068Z,5.97
2023-04-18T09:30:34.423Z,5.65
2023-04-18T09:33:06.386Z,4.55
2023-04-18T09:35:38.082Z,5.00
2023-04-18T09:38:06.473Z,5.72
2023-04-18T09:40:34.022Z,5.13
2023-04-18T09:43:18.366Z,5.07
2023-04-18T09:45:46.977Z,4.97
2023-04-18T09:48:14.402Z,4.65
2023-04-18T09:50:42.661Z,5.05
2023-04-18T09:53:12.065Z,5.07
2023-04-18T09:55:40.400Z,5.22
2023-04-18T09:58:10.678Z,5.63
2023-04-18T10:00:40.135Z,4.95
2023-04-18T10:03:09.913Z,6.22
2023-04-18T10:05:41.905Z,5.18
2023-04-18T10:08:10.570Z,6.50
2023-04-18T10:10:39.059Z,5.28
2023-04-18T10:13:11.294Z,5.38
2023-04-18T10:15:51.686Z,5.75
2023-04-18T10:18:23.775Z,4.53
2023-04-18T10:21:00.615Z,5.00
2023-04-18T10:23:36.293Z,4.53
2023-04-18T10:26:04.766Z,5.82
2023-04-18T10:28:53.879Z,4.75
2023-04-18T10:31:22.571Z,5.85
2023-04-18T10:34:04.001Z,5.63
2023-04-18T10:36:32.661Z,4.70
2023-04-18T10:39:03.160Z,4.40
2023-04-18T10:41:32.530Z,5.15
2023-04-18T10:44:22.430Z,5.32
2023-04-18T10:47:18.629Z,5.47
2023-04-18T10:49:57.932Z,5.95
2023-04-18T10:52:25.808Z,5.93
2023-04-18T10:54:59.236Z,5.65
2023-04-18T10:57:37.986Z,5.85
2023-04-18T11:02:37.346Z,5.25
2023-04-18T11:05:06.969Z,6.18
2023-04-18T11:07:35.781Z,5.80
2023-04-18T11:10:04.077Z,6.28
2023-04-18T11:12:34.558Z,5.85
2023-04-18T11:17:34.908Z,5.00
2023-04-18T11:20:06.871Z,4.78
2023-04-18T11:25:11.119Z,5.72
2023-04-18T11:27:41.746Z,5.55
2023-04-18T11:30:10.220Z,5.78
2023-04-18T11:32:39.368Z,5.00
2023-04-18T11:35:08.949Z,5.07
2023-04-18T11:37:36.415Z,4.18
2023-04-18T11:40:04.360Z,5.10
2023-04-18T11:42:34.882Z,5.18
2023-04-18T11:45:03.240Z,6.32
2023-04-18T11:47:35.143Z,5.90
2023-04-18T11:50:05.881Z,5.63
2023-04-18T11:52:34.704Z,6.38
2023-04-18T11:55:13.551Z,5.32
2023-04-18T11:57:42.210Z,5.15
2023-04-18T12:00:12.634Z,5.47
2023-04-18T12:02:42.799Z,5.97
2023-04-18T12:05:14.913Z,5.25
2023-04-18T12:07:44.747Z,5.30
2023-04-18T12:10:24.988Z,6.07
2023-04-18T12:12:54.453Z,5.65
2023-04-18T12:15:28.281Z,5.43
2023-04-18T12:18:00.706Z,6.50
2023-04-18T12:20:36.670Z,5.32
2023-04-18T12:23:04.490Z,5.75
2023-04-18T12:25:32.974Z,7.50
2023-04-18T12:28:02.022Z,6.50
2023-04-18T12:30:31.067Z,5.25
2023-04-18T12:33:00.149Z,5.85
2023-04-18T12:35:28.592Z,6.18
2023-04-18T12:37:59.994Z,5.22
2023-04-18T12:40:30.225Z,6.00
2023-04-18T12:42:57.625Z,5.90
2023-04-18T12:45:25.466Z,6.43
2023-04-18T12:47:53.746Z,7.15
2023-04-18T12:50:23.233Z,6.68
2023-04-18T12:52:52.048Z,4.47
2023-04-18T12:55:22.771Z,5.85
2023-04-18T12:57:51.812Z,5.50
2023-04-18T13:00:19.310Z,5.03
2023-04-18T13:02:46.864Z,5.43
2023-04-18T13:05:16.450Z,5.80
2023-04-18T13:07:46.365Z,5.30
2023-04-18T13:10:15.028Z,4.95
2023-04-18T13:12:44.011Z,5.85
2023-04-18T13:15:12.184Z,5.93
2023-04-18T13:17:40.151Z,5.47
2023-04-18T13:20:10.788Z,5.03
2023-04-18T13:22:38.601Z,6.30
2023-04-18T13:25:17.071Z,6.22
2023-04-18T13:27:46.848Z,6.03
2023-04-18T13:30:14.457Z,5.38
2023-04-18T13:32:44.027Z,5.38
2023-04-18T13:35:11.809Z,5.63
2023-04-18T13:37:39.786Z,4.65
2023-04-18T13:40:08.373Z,6.28
2023-04-18T13:42:37.388Z,5.68
2023-04-18T13:45:10.344Z,5.45
2023-04-18T13:47:39.580Z,4.88
2023-04-18T13:50:08.388Z,5.45
2023-04-18T13:52:36.419Z,5.43
2023-04-18T13:55:04.151Z,5.70
2023-04-18T13:57:34.132Z,5.18
2023-04-18T14:00:13.966Z,4.88
2023-04-18T14:02:42.680Z,5.18
2023-04-18T14:05:10.753Z,5.13
2023-04-18T14:07:38.845Z,5.43
2023-04-18T14:10:07.555Z,4.93
2023-04-18T14:12:35.120Z,5.35
2023-04-18T14:15:02.592Z,4.63
2023-04-18T14:17:34.150Z,5.05
2023-04-18T14:20:02.456Z,5.47
2023-04-18T14:22:31.270Z,4.88
2023-04-18T14:24:58.991Z,5.78
2023-04-18T14:27:26.659Z,4.93
2023-04-18T14:29:54.540Z,5.22
2023-04-18T14:32:21.741Z,4.57
2023-04-18T14:34:50.516Z,4.50
2023-04-18T14:37:17.878Z,5.13
2023-04-18T14:39:45.305Z,5.53
2023-04-18T14:42:12.756Z,4.57
2023-04-18T14:44:40.575Z,6.13
2023-04-18T14:47:08.007Z,4.57
2023-04-18T14:49:35.520Z,4.53
2023-04-18T14:52:04.976Z,5.50
2023-04-18T14:54:33.130Z,5.13
2023-04-18T14:57:03.523Z,5.00
2023-04-18T14:59:30.994Z,5.18
2023-04-18T15:01:59.728Z,4.65
2023-04-18T15:04:28.930Z,4.68
2023-04-18T15:06:56.542Z,4.13
2023-04-18T15:09:25.275Z,4.75
2023-04-18T15:11:52.680Z,4.68
2023-04-18T15:14:19.989Z,4.03
2023-04-18T15:16:49.599Z,4.93
2023-04-18T15:19:17.164Z,4.38
2023-04-18T15:21:45.068Z,4.55
2023-04-18T15:24:12.676Z,4.32
2023-04-18T15:26:42.607Z,4.05
2023-04-18T15:29:10.063Z,4.55
2023-04-18T15:31:39.056Z,4.78
2023-04-18T15:34:07.344Z,4.28
2023-04-18T15:36:36.139Z,5.10
2023-04-18T15:39:05.784Z,4.57
2023-04-18T15:41:35.486Z,4.53
2023-04-18T15:44:06.077Z,5.32
2023-04-18T15:46:35.508Z,4.15
2023-04-18T15:49:02.890Z,3.85
2023-04-18T15:51:30.477Z,3.85
2023-04-18T15:53:58.002Z,4.47
2023-04-18T15:56:26.923Z,4.35
2023-04-18T15:58:56.727Z,4.40
2023-04-18T16:01:26.929Z,3.90
2023-04-18T16:03:54.681Z,3.80
2023-04-18T16:06:23.593Z,4.25
2023-04-18T16:08:51.160Z,4.80
2023-04-18T16:11:20.751Z,4.07
2023-04-18T16:13:48.586Z,4.18
2023-04-18T16:16:18.641Z,4.85
2023-04-18T16:18:47.678Z,4.40
2023-04-18T16:21:15.949Z,3.90
2023-04-18T16:23:47.666Z,3.67
2023-04-18T16:26:17.338Z,4.25
2023-04-18T16:28:47.245Z,3.67
2023-04-18T16:31:15.494Z,4.32
2023-04-18T16:33:45.533Z,3.75
2023-04-18T16:36:39.558Z,3.35
2023-04-18T16:39:08.707Z,3.85
2023-04-18T16:41:36.077Z,3.75
2023-04-18T16:44:07.975Z,4.13
2023-04-18T16:46:37.524Z,3.00
2023-04-18T16:49:04.959Z,3.60
2023-04-18T16:51:41.249Z,3.55
2023-04-18T16:54:22.568Z,3.60
2023-04-18T16:57:19.444Z,4.43
2023-04-18T16:59:49.888Z,3.47
2023-04-18T17:02:44.644Z,4.25
2023-04-18T17:05:19.378Z,3.22
2023-04-18T17:07:49.934Z,3.72
2023-04-18T17:10:18.100Z,4.45
2023-04-18T17:12:49.197Z,3.88
2023-04-18T17:15:20.974Z,9.60
2023-04-18T17:17:48.571Z,4.93
2023-04-18T17:20:19.592Z,4.22
2023-04-18T17:22:51.438Z,4.25
2023-04-18T17:25:21.208Z,4.55
2023-04-18T17:27:49.477Z,4.53
2023-04-18T17:30:17.247Z,3.38
2023-04-18T17:32:46.329Z,3.42
2023-04-18T17:35:17.699Z,3.80
2023-04-18T17:37:47.361Z,4.03
2023-04-18T17:40:17.279Z,3.08
2023-04-18T17:42:47.698Z,3.45
2023-04-18T17:45:26.518Z,3.70
2023-04-18T17:47:54.940Z,3.42
2023-04-18T17:50:23.728Z,3.25
2023-04-18T17:52:55.163Z,3.95
2023-04-18T17:55:24.375Z,3.35
2023-04-18T17:57:51.687Z,3.65
2023-04-18T18:00:22.067Z,3.78
2023-04-18T18:02:53.088Z,3.45
2023-04-18T18:05:23.383Z,4.10
2023-04-18T18:07:54.771Z,4.22
2023-04-18T18:10:24.666Z,4.13
2023-04-18T18:12:52.311Z,3.53
2023-04-18T18:15:20.368Z,4.28
2023-04-18T18:17:48.939Z,3.63
2023-04-18T18:20:17.244Z,4.07
2023-04-18T18:22:45.009Z,4.25
2023-04-18T18:25:13.023Z,3.95
2023-04-18T18:27:42.088Z,3.83
2023-04-18T18:30:09.833Z,3.88
2023-04-18T18:32:37.288Z,4.22
2023-04-18T18:35:06.249Z,3.85
2023-04-18T18:37:33.687Z,3.92
2023-04-18T18:40:05.108Z,3.05
2023-04-18T18:42:35.743Z,3.80
2023-04-18T18:45:06.464Z,4.00
2023-04-18T18:47:39.682Z,3.28
2023-04-18T18:50:08.081Z,3.28
2023-04-18T18:52:37.363Z,4.43
2023-04-18T18:55:14.209Z,3.58
2023-04-18T18:57:41.537Z,3.38
2023-04-18T19:00:11.654Z,3.03
2023-04-18T19:02:39.767Z,3.38
2023-04-18T19:05:07.828Z,3.63
2023-04-18T19:07:35.127Z,3.35
2023-04-18T19:10:03.529Z,3.70
2023-04-18T19:12:34.393Z,3.50
2023-04-18T19:15:02.346Z,3.00
2023-04-18T19:17:36.986Z,8.23
2023-04-18T19:20:05.053Z,9.93
2023-04-18T19:22:33.574Z,6.35
2023-04-18T19:25:01.325Z,5.35
2023-04-18T19:27:32.456Z,3.15
2023-04-18T19:29:59.911Z,3.95
2023-04-18T19:32:27.378Z,12.43
2023-04-18T19:34:56.122Z,5.38
2023-04-18T19:37:23.619Z,4.40
2023-04-18T19:39:51.012Z,6.28
2023-04-18T19:42:18.602Z,4.32
2023-04-18T19:44:46.183Z,4.40
2023-04-18T19:47:13.623Z,3.53
2023-04-18T19:49:40.983Z,3.15
2023-04-18T19:52:09.744Z,2.75
2023-04-18T19:54:37.308Z,2.83
2023-04-18T19:57:06.422Z,2.97
2023-04-18T19:59:33.946Z,2.45
2023-04-18T20:02:04.351Z,3.17
2023-04-18T20:07:02.268Z,3.80
2023-04-18T20:09:33.671Z,3.42
2023-04-18T20:12:02.165Z,2.90
2023-04-18T20:14:29.903Z,2.25
2023-04-18T20:16:57.554Z,2.80
2023-04-18T20:19:25.875Z,3.53
2023-04-18T20:21:53.234Z,3.50
2023-04-18T20:24:21.345Z,2.47
2023-04-18T20:26:51.481Z,2.67
2023-04-18T20:29:18.724Z,3.08
2023-04-18T20:31:46.318Z,3.15
2023-04-18T20:34:13.703Z,3.00
2023-04-18T20:36:41.679Z,3.33
2023-04-18T20:39:09.556Z,2.28
2023-04-18T20:41:37.188Z,3.50
2023-04-18T20:44:06.093Z,3.15
2023-04-18T20:46:33.487Z,2.50
2023-04-18T20:49:00.944Z,3.17
2023-04-18T20:51:28.410Z,2.78
2023-04-18T20:53:55.942Z,1.80
2023-04-18T20:56:23.336Z,2.92
2023-04-18T20:58:50.892Z,2.22
2023-04-18T21:01:19.732Z,3.03
2023-04-18T21:03:47.289Z,2.50
2023-04-18T21:06:16.616Z,2.85
2023-04-18T21:08:43.997Z,3.42
2023-04-18T21:11:11.310Z,2.88
2023-04-18T21:13:38.656Z,3.13
2023-04-18T21:16:08.001Z,2.85
2023-04-18T21:18:36.914Z,2.97
2023-04-18T21:21:04.530Z,3.00
2023-04-18T21:23:31.791Z,2.53
2023-04-18T21:25:59.293Z,3.13
2023-04-18T21:28:26.623Z,2.72
2023-04-18T21:30:53.992Z,2.65
2023-04-18T21:33:21.366Z,3.50
2023-04-18T21:35:50.109Z,2.97
2023-04-18T21:38:17.627Z,2.35
2023-04-18T21:40:45.095Z,2.55
2023-04-18T21:43:12.398Z,2.90
2023-04-18T21:45:39.738Z,2.85
2023-04-18T21:48:09.981Z,2.38
2023-04-18T21:50:37.450Z,3.03
2023-04-18T21:53:06.321Z,2.30
2023-04-18T21:55:33.585Z,2.97
2023-04-18T21:58:01.182Z,3.15
2023-04-18T22:00:28.536Z,3.33
2023-04-18T22:02:56.163Z,2.60
2023-04-18T22:05:23.508Z,2.28
2023-04-18T22:07:57.958Z,1.73
2023-04-18T22:10:27.995Z,2.83
2023-04-18T22:12:56.045Z,2.65
2023-04-18T22:15:24.597Z,2.67
2023-04-18T22:17:51.930Z,2.85
2023-04-18T22:20:19.313Z,2.95
2023-04-18T22:22:46.728Z,3.15
2023-04-18T22:25:14.002Z,3.30
2023-04-18T22:27:43.289Z,3.33
2023-04-18T22:30:11.962Z,2.60
2023-04-18T22:32:39.574Z,3.35
2023-04-18T22:35:08.393Z,3.65
2023-04-18T22:37:35.893Z,2.40
2023-04-18T22:40:05.272Z,3.85
2023-04-18T22:42:33.701Z,3.22
2023-04-18T22:45:02.631Z,3.47
2023-04-18T22:47:31.915Z,2.90
2023-04-18T22:49:59.395Z,3.83
2023-04-18T22:52:26.769Z,4.57
2023-04-18T22:54:54.343Z,3.28
2023-04-18T22:57:22.194Z,3.30
2023-04-18T22:59:49.470Z,3.22
2023-04-18T23:02:18.292Z,3.30
2023-04-18T23:04:46.420Z,4.03
2023-04-18T23:07:13.918Z,3.60
2023-04-18T23:09:41.678Z,3.97
2023-04-18T23:12:09.081Z,3.30
2023-04-18T23:14:36.520Z,4.05
2023-04-18T23:17:03.868Z,3.72
2023-04-18T23:19:32.984Z,3.35
2023-04-18T23:22:00.372Z,3.78
2023-04-18T23:24:27.809Z,3.28
2023-04-18T23:26:55.065Z,3.05
2023-04-18T23:29:22.435Z,3.90
2023-04-18T23:31:49.822Z,3.38
2023-04-18T23:34:17.474Z,3.95
2023-04-18T23:36:46.730Z,3.28
2023-04-18T23:39:14.156Z,3.35
2023-04-18T23:41:41.543Z,4.13
2023-04-18T23:44:09.111Z,4.35
2023-04-18T23:46:36.764Z,4.57
2023-04-18T23:49:04.300Z,3.33
2023-04-18T23:51:31.664Z,3.00
2023-04-18T23:54:00.542Z,3.55
2023-04-18T23:56:28.264Z,3.47
2023-04-18T23:58:55.567Z,3.45
